createdAt,value
2023-02-07T08:36:06.008Z,-3.8
2023-02-07T08:41:11.187Z,-1
2023-02-07T08:46:17.294Z,0.5
2023-02-07T08:51:23.432Z,1.1
2023-02-07T08:56:29.403Z,1.4
2023-02-07T09:01:35.654Z,1
2023-02-07T09:06:41.782Z,0.9
2023-02-07T09:11:47.756Z,0
2023-02-07T09:16:54.075Z,-0.5
2023-02-07T09:22:00.137Z,-0.7
2023-02-07T09:27:06.085Z,0.1
2023-02-07T09:32:12.395Z,0.2
2023-02-07T09:37:18.516Z,-0.4
2023-02-07T09:42:24.556Z,-0.8
2023-02-07T09:47:30.731Z,-0.5
2023-02-07T09:52:36.848Z,-0.5
2023-02-07T09:57:42.955Z,-0.8
2023-02-07T10:02:49.065Z,-0.7
2023-02-07T10:07:55.167Z,-0.5
2023-02-07T10:13:01.297Z,-0.2
2023-02-07T10:18:06.435Z,0
2023-02-07T10:23:11.496Z,0.1
2023-02-07T10:28:17.602Z,0
2023-02-07T10:33:23.640Z,0.2
2023-02-07T10:43:46.445Z,0.6
2023-02-07T10:48:42.125Z,0.9
2023-02-07T10:53:48.242Z,1
2023-02-07T10:58:54.313Z,1.2
2023-02-07T11:04:00.471Z,1
2023-02-07T11:09:06.591Z,0.6
2023-02-07T11:14:12.542Z,0.8
2023-02-07T11:19:18.811Z,0.8
2023-02-07T11:24:24.919Z,0.9
2023-02-07T11:29:29.904Z,1.1
2023-02-07T11:34:36.159Z,1.3
2023-02-07T11:39:42.289Z,1.1
2023-02-07T11:44:48.407Z,1.2
2023-02-07T11:49:54.421Z,1.5
2023-02-07T11:55:00.739Z,1.9
2023-02-07T12:00:06.612Z,1.6
2023-02-07T12:05:12.900Z,1.7
2023-02-07T12:10:18.837Z,1.7
2023-02-07T12:15:24.057Z,2.7
2023-02-07T12:20:29.304Z,3.1
2023-02-07T12:25:35.445Z,3.5
2023-02-07T12:30:41.340Z,2.5
2023-02-07T12:35:47.640Z,2.1
2023-02-07T12:40:53.716Z,2.5
2023-02-07T12:45:59.848Z,3.2
2023-02-07T12:51:06.014Z,2.8
2023-02-07T12:56:12.144Z,2.3
2023-02-07T13:01:18.226Z,2.2
2023-02-07T13:06:24.330Z,2.7
2023-02-07T13:11:30.278Z,2.5
2023-02-07T13:16:36.453Z,2.6
2023-02-07T13:21:42.644Z,2.8
2023-02-07T13:26:47.791Z,3.2
2023-02-07T13:31:53.952Z,2.5
2023-02-07T13:37:00.060Z,2.1
2023-02-07T13:42:06.147Z,2.5
2023-02-07T13:47:12.316Z,2.5
2023-02-07T13:52:18.375Z,2.3
2023-02-07T13:57:24.486Z,2.4
2023-02-07T14:02:29.609Z,1.9
2023-02-07T14:07:34.723Z,1.7
2023-02-07T14:12:39.837Z,1.6
2023-02-07T14:17:44.925Z,1.2
2023-02-07T14:22:51.124Z,1.2
2023-02-07T14:27:57.245Z,1.1
2023-02-07T14:33:03.321Z,0.9
2023-02-07T14:38:09.520Z,0.7
2023-02-07T14:43:15.578Z,0.4
2023-02-07T14:48:21.535Z,0.2
2023-02-07T14:53:27.743Z,0.1
2023-02-07T14:58:33.812Z,-0.1
2023-02-07T15:03:39.895Z,-0.1
2023-02-07T15:08:46.008Z,-0.5
2023-02-07T15:13:52.116Z,-0.8
2023-02-07T15:18:58.469Z,-1
2023-02-07T15:24:03.366Z,-1.2
2023-02-07T15:29:09.617Z,-1.3
2023-02-07T15:34:15.819Z,-1.2
2023-02-07T15:39:21.816Z,-1.5
2023-02-07T15:44:28.009Z,-1.9
2023-02-07T15:49:34.152Z,-2.2
2023-02-07T15:54:40.249Z,-2.6
2023-02-07T15:59:45.203Z,-2.8
2023-02-07T16:04:50.517Z,-3
2023-02-07T16:09:55.628Z,-3
2023-02-07T16:15:00.713Z,-3.1
2023-02-07T16:20:06.907Z,-2.6
2023-02-07T16:25:13.005Z,-3
2023-02-07T16:30:19.138Z,-3
2023-02-07T16:35:25.257Z,-3.1
2023-02-07T16:40:31.308Z,-3.5
2023-02-07T16:45:37.294Z,-3.5
2023-02-07T16:50:43.551Z,-2.9
2023-02-07T16:55:49.663Z,-3
2023-02-07T17:00:55.863Z,-3.3
2023-02-07T17:06:01.989Z,-3.5
2023-02-07T17:11:07.855Z,-3.5
2023-02-07T17:16:14.120Z,-3
2023-02-07T17:21:19.322Z,-3.3
2023-02-07T17:26:25.389Z,-3.7
2023-02-07T17:31:31.478Z,-3.8
2023-02-07T17:36:37.680Z,-4.1
2023-02-07T17:41:43.568Z,-4.3
2023-02-07T17:46:49.895Z,-4.2
2023-02-07T17:51:55.947Z,-4.3
2023-02-07T17:57:01.108Z,-4.3
2023-02-07T18:02:06.271Z,-4
2023-02-07T18:07:12.367Z,-4.3
2023-02-07T18:12:18.508Z,-4.3
2023-02-07T18:22:30.701Z,-3.7
2023-02-07T18:27:36.661Z,-3.5
2023-02-07T18:32:42.920Z,-3
2023-02-07T18:37:49.128Z,-3
2023-02-07T18:42:55.260Z,-3.1
2023-02-07T18:48:01.297Z,-3.1
2023-02-07T18:53:07.248Z,-3.3
2023-02-07T18:58:13.472Z,-3.4
2023-02-07T19:03:19.513Z,-3.4
2023-02-07T19:08:24.755Z,-3.4
2023-02-07T19:13:30.924Z,-3.5
2023-02-07T19:18:36.982Z,-3.6
2023-02-07T19:23:43.163Z,-3.5
2023-02-07T19:28:49.267Z,-3.6
2023-02-07T19:33:55.360Z,-3.7
2023-02-07T19:39:01.358Z,-3.9
2023-02-07T19:44:07.608Z,-4
2023-02-07T19:49:12.736Z,-4.1
2023-02-07T19:54:17.816Z,-4.2
2023-02-07T19:59:22.932Z,-4.2
2023-02-07T20:04:28.168Z,-4.3
2023-02-07T20:09:34.114Z,-4.4
2023-02-07T20:14:40.286Z,-4.6
2023-02-07T20:19:46.458Z,-4.6
2023-02-07T20:24:52.579Z,-4.7
2023-02-07T20:29:58.799Z,-4.9
2023-02-07T20:35:04.750Z,-4.8
2023-02-07T20:40:10.938Z,-4.9
2023-02-07T20:45:17.151Z,-5
2023-02-07T20:50:23.234Z,-4.8
2023-02-07T20:55:29.328Z,-4.7
2023-02-07T21:00:35.462Z,-4.7
2023-02-07T21:05:41.578Z,-4.6
2023-02-07T21:10:46.572Z,-4.4
2023-02-07T21:15:52.694Z,-4.4
2023-02-07T21:20:58.984Z,-4.6
2023-02-07T21:26:04.913Z,-4.5
2023-02-07T21:31:11.156Z,-4.4
2023-02-07T21:36:17.295Z,-4.5
2023-02-07T21:41:23.311Z,-4.4
2023-02-07T21:46:28.538Z,-4.4
2023-02-07T21:51:33.570Z,-4.4
2023-02-07T21:56:38.816Z,-4.5
2023-02-07T22:01:43.974Z,-4.5
2023-02-07T22:06:50.083Z,-4.6
2023-02-07T22:11:56.243Z,-4.5
2023-02-07T22:17:02.300Z,-4.6
2023-02-07T22:22:08.410Z,-4.6
2023-02-07T22:27:14.417Z,-4.6
2023-02-07T22:32:20.639Z,-4.7
2023-02-07T22:37:26.774Z,-4.6
2023-02-07T22:42:32.879Z,-4.7
2023-02-07T22:47:39.048Z,-4.9
2023-02-07T22:52:45.205Z,-4.9
2023-02-07T22:57:51.237Z,-5.2
2023-02-07T23:02:57.415Z,-5.4
2023-02-07T23:08:02.574Z,-5.8
2023-02-07T23:13:08.534Z,-6
2023-02-07T23:18:14.610Z,-5.6
2023-02-07T23:23:20.855Z,-5.7
2023-02-07T23:28:26.994Z,-5.9
2023-02-07T23:33:33.013Z,-6.2
2023-02-07T23:38:39.085Z,-6.2
2023-02-07T23:43:45.378Z,-6.2
2023-02-07T23:48:50.479Z,-6.3
2023-02-07T23:53:55.538Z,-6.3
2023-02-07T23:59:01.619Z,-6.6
